createdAt,value
2019-02-20T00:00:05.779Z,4.10
2019-02-20T00:01:05.795Z,3.20
2019-02-20T00:02:05.786Z,3.20
2019-02-20T00:03:05.788Z,3.20
2019-02-20T00:04:05.798Z,3.30
2019-02-20T00:05:05.798Z,3.00
2019-02-20T00:06:05.804Z,3.90
2019-02-20T00:07:05.798Z,3.20
2019-02-20T00:08:05.806Z,3.50
2019-02-20T00:09:05.805Z,3.80
2019-02-20T00:10:05.867Z,3.50
2019-02-20T00:11:05.814Z,3.90
2019-02-20T00:12:05.814Z,3.20
2019-02-20T00:13:05.824Z,3.00
2019-02-20T00:14:05.824Z,3.40
2019-02-20T00:15:05.825Z,4.10
2019-02-20T00:16:05.834Z,3.60
2019-02-20T00:17:05.845Z,2.70
2019-02-20T00:18:06.748Z,3.50
2019-02-20T00:19:05.845Z,3.10
2019-02-20T00:20:05.848Z,3.40
2019-02-20T00:21:05.849Z,3.60
2019-02-20T00:22:05.849Z,3.70
2019-02-20T00:23:05.852Z,3.10
2019-02-20T00:24:05.866Z,2.80
2019-02-20T00:25:05.861Z,3.30
2019-02-20T00:26:05.862Z,3.40
2019-02-20T00:27:05.867Z,3.70
2019-02-20T00:28:05.870Z,3.90
2019-02-20T00:29:05.879Z,3.00
2019-02-20T00:30:05.897Z,3.80
2019-02-20T00:31:05.889Z,3.30
2019-02-20T00:32:05.880Z,3.80
2019-02-20T00:33:05.896Z,3.30
2019-02-20T00:34:05.891Z,3.90
2019-02-20T00:35:05.905Z,4.10
2019-02-20T00:36:05.899Z,3.60
2019-02-20T00:37:05.907Z,3.80
2019-02-20T00:38:05.908Z,3.50
2019-02-20T00:39:05.912Z,3.80
2019-02-20T00:40:05.925Z,3.30
2019-02-20T00:41:05.919Z,3.70
2019-02-20T00:42:05.914Z,3.80
2019-02-20T00:43:05.926Z,3.80
2019-02-20T00:44:05.930Z,3.10
2019-02-20T00:45:05.935Z,3.40
2019-02-20T00:46:05.931Z,3.80
2019-02-20T00:47:05.931Z,3.30
2019-02-20T00:48:05.941Z,3.70
2019-02-20T00:49:05.940Z,4.30
2019-02-20T00:50:05.941Z,3.50
2019-02-20T00:51:05.937Z,3.60
2019-02-20T00:52:05.949Z,3.70
2019-02-20T00:53:05.954Z,3.60
2019-02-20T00:54:05.964Z,3.70
2019-02-20T00:55:05.955Z,3.60
2019-02-20T00:56:05.961Z,4.40
2019-02-20T00:57:05.968Z,3.50
2019-02-20T00:58:05.979Z,4.10
2019-02-20T00:59:05.976Z,3.30
2019-02-20T01:00:05.990Z,3.40
2019-02-20T01:01:05.982Z,3.10
2019-02-20T01:02:05.979Z,3.70
2019-02-20T01:03:05.990Z,3.60
2019-02-20T01:04:05.988Z,3.20
2019-02-20T01:05:05.998Z,3.80
2019-02-20T01:06:05.999Z,4.20
2019-02-20T01:07:05.999Z,3.40
2019-02-20T01:08:06.005Z,3.40
2019-02-20T01:09:06.015Z,3.80
2019-02-20T01:10:06.008Z,3.50
2019-02-20T01:11:06.010Z,3.40
2019-02-20T01:12:06.013Z,4.40
2019-02-20T01:13:06.022Z,3.80
2019-02-20T01:14:06.083Z,4.00
2019-02-20T01:15:06.021Z,3.90
2019-02-20T01:16:06.044Z,3.40
2019-02-20T01:17:06.032Z,4.20
2019-02-20T01:18:06.033Z,4.30
2019-02-20T01:19:06.039Z,4.20
2019-02-20T01:20:06.038Z,3.60
2019-02-20T01:21:06.049Z,3.50
2019-02-20T01:22:06.042Z,3.80
2019-02-20T01:23:06.067Z,3.90
2019-02-20T01:24:06.056Z,4.00
2019-02-20T01:25:06.063Z,4.30
2019-02-20T01:26:06.062Z,4.00
2019-02-20T01:27:06.061Z,4.10
2019-02-20T01:28:06.072Z,4.70
2019-02-20T01:29:06.073Z,4.20
2019-02-20T01:30:06.077Z,3.80
2019-02-20T01:31:06.077Z,3.90
2019-02-20T01:32:06.090Z,3.40
2019-02-20T01:33:06.097Z,4.00
2019-02-20T01:34:06.094Z,3.90
2019-02-20T01:35:06.081Z,3.90
2019-02-20T01:36:06.093Z,4.00
2019-02-20T01:37:06.100Z,3.90
2019-02-20T01:38:06.103Z,4.30
2019-02-20T01:39:06.110Z,4.40
2019-02-20T01:40:06.106Z,3.70
2019-02-20T01:41:06.116Z,3.70
2019-02-20T01:42:06.122Z,3.90
2019-02-20T01:43:06.127Z,4.30
2019-02-20T01:44:06.121Z,3.90
2019-02-20T01:45:06.126Z,4.70
2019-02-20T01:46:06.153Z,4.60
2019-02-20T01:47:06.141Z,4.90
2019-02-20T01:48:06.144Z,4.20
2019-02-20T01:49:06.145Z,4.00
2019-02-20T01:50:06.140Z,4.20
2019-02-20T01:51:06.151Z,4.20
2019-02-20T01:52:06.156Z,4.30
2019-02-20T01:53:10.285Z,4.60
2019-02-20T01:54:06.153Z,4.50
2019-02-20T01:55:06.164Z,4.20
2019-02-20T01:56:06.167Z,4.70
2019-02-20T01:57:06.179Z,4.40
2019-02-20T01:58:06.182Z,4.90
2019-02-20T01:59:06.178Z,4.20
2019-02-20T02:00:06.180Z,4.90
2019-02-20T02:01:06.184Z,4.20
2019-02-20T02:02:06.186Z,4.60
2019-02-20T02:03:06.192Z,5.00
2019-02-20T02:04:06.199Z,4.30
2019-02-20T02:05:14.548Z,4.50
2019-02-20T02:06:06.202Z,4.60
2019-02-20T02:07:06.207Z,4.90
2019-02-20T02:08:06.217Z,5.00
2019-02-20T02:09:06.212Z,4.80
2019-02-20T02:10:06.228Z,5.90
2019-02-20T02:11:06.213Z,5.70
2019-02-20T02:12:06.225Z,4.90
2019-02-20T02:13:06.235Z,5.40
2019-02-20T02:14:06.230Z,5.00
2019-02-20T02:15:06.246Z,5.30
2019-02-20T02:16:06.243Z,5.30
2019-02-20T02:17:06.254Z,4.90
2019-02-20T02:18:06.254Z,5.50
2019-02-20T02:19:06.249Z,5.30
2019-02-20T02:20:06.250Z,4.10
2019-02-20T02:21:06.279Z,5.00
2019-02-20T02:22:06.258Z,5.30
2019-02-20T02:23:06.265Z,5.30
2019-02-20T02:24:06.269Z,5.10
2019-02-20T02:25:06.268Z,5.50
2019-02-20T02:26:10.897Z,5.30
2019-02-20T02:27:06.271Z,5.60
2019-02-20T02:28:06.289Z,5.90
2019-02-20T02:29:06.280Z,5.20
2019-02-20T02:30:06.295Z,5.80
2019-02-20T02:31:06.311Z,5.70
2019-02-20T02:32:06.297Z,6.10
2019-02-20T02:33:06.304Z,5.50
2019-02-20T02:34:06.359Z,5.80
2019-02-20T02:35:06.422Z,5.50
2019-02-20T02:36:06.424Z,6.00
2019-02-20T02:37:06.319Z,6.40
2019-02-20T02:38:06.367Z,6.00
2019-02-20T02:39:06.454Z,6.10
2019-02-20T02:40:06.515Z,6.30
2019-02-20T02:41:06.372Z,6.10
2019-02-20T02:42:06.355Z,5.70
2019-02-20T02:43:06.340Z,6.10
2019-02-20T02:44:06.344Z,6.10
2019-02-20T02:45:06.343Z,6.30
2019-02-20T02:46:06.351Z,6.20
2019-02-20T02:47:06.350Z,6.40
2019-02-20T02:48:06.413Z,6.00
2019-02-20T02:49:06.357Z,6.20
2019-02-20T02:50:06.365Z,6.80
2019-02-20T02:51:06.370Z,5.90
2019-02-20T02:52:06.378Z,6.20
2019-02-20T02:53:06.377Z,6.40
2019-02-20T02:54:06.378Z,6.10
2019-02-20T02:55:06.381Z,7.20
2019-02-20T02:56:06.393Z,7.20
2019-02-20T02:57:06.388Z,7.00
2019-02-20T02:58:06.391Z,7.20
2019-02-20T02:59:06.399Z,7.30
2019-02-20T03:00:06.408Z,7.60
2019-02-20T03:01:06.402Z,7.30
2019-02-20T03:02:06.410Z,8.10
2019-02-20T03:03:06.411Z,7.30
2019-02-20T03:04:06.412Z,8.30
2019-02-20T03:05:06.420Z,7.50
2019-02-20T03:06:06.424Z,7.90
2019-02-20T03:07:06.430Z,7.90
2019-02-20T03:08:06.431Z,8.20
2019-02-20T03:09:06.431Z,8.30
2019-02-20T03:10:06.440Z,8.70
2019-02-20T03:11:06.442Z,8.40
2019-02-20T03:12:06.446Z,8.70
2019-02-20T03:13:06.449Z,8.60
2019-02-20T03:14:06.452Z,8.20
2019-02-20T03:15:06.459Z,9.40
2019-02-20T03:16:06.454Z,7.90
2019-02-20T03:17:06.466Z,8.40
2019-02-20T03:18:06.465Z,9.00
2019-02-20T03:19:06.471Z,8.90
2019-02-20T03:20:06.486Z,8.40
2019-02-20T03:21:06.480Z,8.60
2019-02-20T03:22:06.478Z,8.10
2019-02-20T03:23:06.543Z,8.50
2019-02-20T03:24:06.491Z,9.20
2019-02-20T03:25:06.499Z,8.50
2019-02-20T03:26:06.494Z,8.80
2019-02-20T03:27:06.511Z,8.30
2019-02-20T03:28:06.501Z,8.20
2019-02-20T03:29:06.509Z,9.70
2019-02-20T03:30:06.508Z,9.30
2019-02-20T03:31:06.522Z,9.10
2019-02-20T03:32:06.518Z,8.50
2019-02-20T03:33:06.587Z,9.00
2019-02-20T03:34:08.977Z,10.00
2019-02-20T03:35:06.525Z,9.70
2019-02-20T03:36:06.531Z,9.80
2019-02-20T03:37:06.539Z,9.40
2019-02-20T03:38:06.533Z,9.40
2019-02-20T03:39:06.551Z,9.00
2019-02-20T03:40:06.547Z,8.50
2019-02-20T03:41:06.559Z,9.20
2019-02-20T03:42:06.565Z,9.50
2019-02-20T03:43:06.559Z,9.90
2019-02-20T03:44:06.562Z,8.90
2019-02-20T03:45:06.562Z,10.10
2019-02-20T03:46:06.572Z,10.20
2019-02-20T03:47:06.572Z,9.80
2019-02-20T03:48:06.581Z,9.90
2019-02-20T03:49:06.582Z,9.60
2019-02-20T03:50:06.586Z,9.10
2019-02-20T03:51:06.588Z,9.80
2019-02-20T03:52:06.594Z,9.30
2019-02-20T03:53:06.599Z,9.20
2019-02-20T03:54:06.597Z,9.30
2019-02-20T03:55:06.592Z,9.50
2019-02-20T03:56:06.611Z,9.50
2019-02-20T03:57:06.612Z,9.60
2019-02-20T03:58:06.615Z,9.10
2019-02-20T03:59:06.611Z,10.10
2019-02-20T04:00:06.620Z,9.80
2019-02-20T04:01:06.627Z,9.10
2019-02-20T04:02:06.628Z,9.60
2019-02-20T04:03:06.629Z,9.70
2019-02-20T04:04:06.635Z,8.80
2019-02-20T04:05:06.644Z,9.40
2019-02-20T04:06:06.646Z,9.30
2019-02-20T04:07:06.649Z,9.50
2019-02-20T04:08:06.652Z,9.50
2019-02-20T04:09:06.659Z,8.90
2019-02-20T04:10:08.994Z,9.10
2019-02-20T04:11:06.668Z,8.90
2019-02-20T04:12:06.664Z,9.20
2019-02-20T04:13:06.677Z,9.10
2019-02-20T04:14:06.673Z,9.10
2019-02-20T04:15:06.676Z,9.20
2019-02-20T04:16:06.684Z,9.10
2019-02-20T04:17:06.692Z,9.40
2019-02-20T04:18:06.690Z,9.30
2019-02-20T04:19:06.695Z,8.50
2019-02-20T04:20:06.708Z,8.60
2019-02-20T04:21:06.702Z,9.60
2019-02-20T04:22:06.706Z,9.80
2019-02-20T04:23:06.706Z,9.50
2019-02-20T04:24:06.719Z,9.10
2019-02-20T04:25:06.719Z,8.70
2019-02-20T04:26:06.718Z,9.40
2019-02-20T04:27:06.720Z,9.40
2019-02-20T04:28:06.730Z,9.40
2019-02-20T04:29:06.732Z,9.10
2019-02-20T04:30:06.732Z,8.30
2019-02-20T04:31:06.740Z,9.10
2019-02-20T04:32:06.740Z,9.40
2019-02-20T04:33:06.748Z,9.20
2019-02-20T04:34:06.746Z,8.70
2019-02-20T04:35:06.753Z,8.30
2019-02-20T04:36:06.753Z,8.40
2019-02-20T04:37:06.763Z,8.90
2019-02-20T04:38:06.762Z,8.20
2019-02-20T04:39:06.769Z,9.00
2019-02-20T04:40:06.776Z,8.70
2019-02-20T04:41:06.782Z,10.40
2019-02-20T04:42:06.780Z,9.70
2019-02-20T04:43:06.783Z,8.80
2019-02-20T04:44:06.787Z,8.80
2019-02-20T04:45:06.798Z,9.50
2019-02-20T04:46:06.796Z,8.90
2019-02-20T04:47:06.794Z,8.60
2019-02-20T04:48:06.801Z,9.20
2019-02-20T04:49:06.807Z,8.10
2019-02-20T04:50:06.812Z,9.00
2019-02-20T04:51:06.821Z,8.80
2019-02-20T04:52:06.817Z,8.70
2019-02-20T04:53:06.816Z,8.10
2019-02-20T04:54:13.268Z,8.40
2019-02-20T04:55:06.827Z,8.20
2019-02-20T04:56:06.832Z,8.70
2019-02-20T04:57:06.844Z,8.10
2019-02-20T04:58:06.839Z,8.50
2019-02-20T04:59:06.839Z,8.30
2019-02-20T05:00:06.848Z,8.30
2019-02-20T05:01:06.852Z,8.40
2019-02-20T05:02:06.855Z,8.60
2019-02-20T05:03:06.860Z,9.10
2019-02-20T05:04:06.861Z,9.60
2019-02-20T05:05:06.881Z,8.40
2019-02-20T05:06:06.879Z,10.10
2019-02-20T05:07:06.878Z,8.50
2019-02-20T05:08:06.877Z,9.40
2019-02-20T05:09:06.883Z,7.70
2019-02-20T05:10:06.885Z,8.40
2019-02-20T05:11:06.886Z,7.50
2019-02-20T05:12:06.893Z,7.60
2019-02-20T05:13:06.906Z,8.20
2019-02-20T05:14:06.901Z,8.70
2019-02-20T05:15:06.904Z,8.10
2019-02-20T05:16:06.907Z,8.40
2019-02-20T05:17:06.912Z,8.30
2019-02-20T05:18:06.917Z,9.30
2019-02-20T05:19:06.914Z,9.00
2019-02-20T05:20:06.919Z,8.20
2019-02-20T05:21:06.922Z,8.60
2019-02-20T05:22:06.929Z,7.90
2019-02-20T05:23:06.934Z,8.70
2019-02-20T05:24:06.930Z,8.40
2019-02-20T05:25:06.948Z,8.40
2019-02-20T05:26:06.943Z,7.90
2019-02-20T05:27:06.941Z,8.40
2019-02-20T05:28:06.941Z,8.10
2019-02-20T05:29:06.954Z,8.60
2019-02-20T05:30:06.959Z,8.20
2019-02-20T05:31:06.970Z,8.70
2019-02-20T05:32:06.970Z,8.20
2019-02-20T05:33:06.978Z,9.30
2019-02-20T05:34:06.968Z,8.90
2019-02-20T05:35:06.973Z,9.10
2019-02-20T05:36:07.005Z,8.10
2019-02-20T05:37:06.979Z,8.30
2019-02-20T05:38:06.983Z,8.60
2019-02-20T05:39:06.991Z,8.60
2019-02-20T05:40:06.991Z,9.00
2019-02-20T05:41:06.998Z,9.10
2019-02-20T05:42:07.000Z,8.70
2019-02-20T05:43:07.008Z,9.50
2019-02-20T05:44:07.008Z,9.00
2019-02-20T05:45:07.011Z,9.10
2019-02-20T05:46:07.012Z,9.60
2019-02-20T05:47:07.017Z,9.50
2019-02-20T05:48:07.020Z,9.80
2019-02-20T05:49:07.025Z,9.60
2019-02-20T05:50:07.038Z,9.10
2019-02-20T05:51:07.030Z,10.00
2019-02-20T05:52:07.029Z,9.70
2019-02-20T05:53:07.052Z,8.60
2019-02-20T05:54:07.042Z,10.00
2019-02-20T05:55:07.042Z,10.70
2019-02-20T05:56:07.049Z,9.90
2019-02-20T05:57:07.052Z,9.40
2019-02-20T05:58:07.060Z,9.60
2019-02-20T05:59:07.060Z,10.00
2019-02-20T06:00:07.066Z,10.20
2019-02-20T06:01:07.062Z,9.60
2019-02-20T06:02:07.069Z,9.70
2019-02-20T06:03:07.182Z,10.30
2019-02-20T06:04:07.077Z,10.00
2019-02-20T06:05:07.081Z,8.50
2019-02-20T06:06:07.079Z,9.80
2019-02-20T06:07:07.092Z,9.60
2019-02-20T06:08:07.120Z,9.50
2019-02-20T06:09:07.093Z,9.90
2019-02-20T06:10:07.098Z,9.20
2019-02-20T06:11:14.384Z,9.40
2019-02-20T06:12:07.114Z,9.60
2019-02-20T06:13:07.117Z,9.60
2019-02-20T06:14:07.109Z,10.30
2019-02-20T06:15:07.108Z,10.40
2019-02-20T06:16:07.119Z,11.00
2019-02-20T06:17:07.127Z,10.50
2019-02-20T06:18:07.124Z,9.60
2019-02-20T06:19:07.112Z,10.20
2019-02-20T06:20:07.128Z,9.90
2019-02-20T06:21:07.133Z,10.90
2019-02-20T06:22:07.132Z,10.20
2019-02-20T06:23:07.135Z,9.70
2019-02-20T06:24:07.141Z,10.20
2019-02-20T06:25:07.149Z,10.40
2019-02-20T06:26:07.149Z,10.60
2019-02-20T06:27:07.920Z,10.80
2019-02-20T06:28:07.165Z,11.40
2019-02-20T06:29:07.156Z,11.00
2019-02-20T06:30:07.159Z,10.70
2019-02-20T06:31:07.166Z,10.40
2019-02-20T06:32:07.187Z,10.20
2019-02-20T06:33:07.172Z,9.90
2019-02-20T06:34:07.169Z,10.30
2019-02-20T06:35:07.177Z,11.20
2019-02-20T06:36:07.187Z,10.80
2019-02-20T06:37:07.193Z,10.00
2019-02-20T06:38:10.517Z,9.40
2019-02-20T06:39:07.191Z,10.30
2019-02-20T06:40:07.195Z,11.50
2019-02-20T06:41:07.203Z,11.70
2019-02-20T06:42:07.225Z,10.50
2019-02-20T06:43:07.202Z,10.70
2019-02-20T06:44:07.227Z,12.00
2019-02-20T06:45:07.210Z,10.50
2019-02-20T06:46:07.211Z,11.10
2019-02-20T06:47:07.221Z,10.60
2019-02-20T06:48:07.227Z,10.80
2019-02-20T06:49:07.222Z,10.80
2019-02-20T06:50:07.221Z,10.80
2019-02-20T06:51:07.232Z,11.20
2019-02-20T06:52:07.232Z,10.70
2019-02-20T06:53:07.233Z,10.60
2019-02-20T06:54:07.237Z,12.10
2019-02-20T06:55:07.243Z,11.00
2019-02-20T06:56:07.244Z,10.80
2019-02-20T06:57:07.255Z,11.40
2019-02-20T06:58:07.255Z,11.60
2019-02-20T06:59:07.256Z,11.30
2019-02-20T07:00:07.263Z,11.50
2019-02-20T07:01:07.267Z,11.20
2019-02-20T07:02:07.283Z,11.40
2019-02-20T07:03:07.265Z,11.30
2019-02-20T07:04:07.276Z,10.30
2019-02-20T07:05:07.275Z,11.30
2019-02-20T07:06:07.277Z,11.90
2019-02-20T07:07:07.292Z,10.70
2019-02-20T07:08:07.287Z,10.40
2019-02-20T07:09:07.283Z,11.00
2019-02-20T07:10:07.289Z,11.90
2019-02-20T07:11:07.315Z,10.80
2019-02-20T07:12:07.298Z,11.30
2019-02-20T07:13:07.322Z,11.30
2019-02-20T07:14:07.312Z,12.60
2019-02-20T07:15:07.312Z,11.20
2019-02-20T07:16:07.315Z,12.10
2019-02-20T07:17:07.322Z,11.90
2019-02-20T07:18:07.319Z,11.40
2019-02-20T07:19:07.342Z,12.40
2019-02-20T07:20:07.330Z,10.90
2019-02-20T07:21:07.334Z,11.30
2019-02-20T07:22:07.338Z,11.40
2019-02-20T07:23:07.341Z,10.80
2019-02-20T07:24:07.346Z,11.20
2019-02-20T07:25:07.351Z,10.80
2019-02-20T07:26:07.387Z,11.80
2019-02-20T07:27:28.367Z,12.00
2019-02-20T07:28:07.361Z,11.70
2019-02-20T07:29:07.369Z,10.90
2019-02-20T07:30:07.372Z,11.10
2019-02-20T07:31:07.369Z,10.20
2019-02-20T07:32:07.367Z,11.20
2019-02-20T07:33:07.379Z,10.90
2019-02-20T07:34:07.385Z,10.70
2019-02-20T07:35:07.392Z,11.70
2019-02-20T07:36:07.392Z,11.40
2019-02-20T07:37:07.408Z,10.90
2019-02-20T07:38:07.403Z,11.00
2019-02-20T07:39:07.405Z,10.60
2019-02-20T07:40:07.409Z,11.30
2019-02-20T07:41:07.414Z,10.80
2019-02-20T07:42:07.430Z,10.30
2019-02-20T07:43:07.430Z,10.70
2019-02-20T07:44:07.427Z,11.10
2019-02-20T07:45:07.439Z,10.40
2019-02-20T07:46:07.437Z,10.80
2019-02-20T07:47:07.436Z,11.00
2019-02-20T07:48:07.482Z,10.20
2019-02-20T07:49:07.447Z,10.90
2019-02-20T07:50:07.444Z,11.40
2019-02-20T07:51:07.456Z,11.80
2019-02-20T07:52:07.457Z,10.90
2019-02-20T07:53:07.460Z,10.60
2019-02-20T07:54:07.473Z,10.30
2019-02-20T07:55:13.208Z,11.20
2019-02-20T07:56:07.476Z,10.80
2019-02-20T07:57:07.494Z,11.10
2019-02-20T07:58:07.484Z,10.80
2019-02-20T07:59:07.496Z,10.70
2019-02-20T08:00:07.492Z,10.80
2019-02-20T08:01:07.500Z,10.80
2019-02-20T08:02:07.513Z,10.30
2019-02-20T08:03:07.513Z,10.60
2019-02-20T08:04:07.511Z,11.70
2019-02-20T08:05:07.552Z,11.10
2019-02-20T08:06:07.524Z,9.40
2019-02-20T08:07:07.521Z,10.30
2019-02-20T08:08:07.529Z,9.70
2019-02-20T08:09:07.533Z,10.50
2019-02-20T08:10:07.536Z,10.40
2019-02-20T08:11:07.547Z,10.80
2019-02-20T08:12:07.585Z,11.40
2019-02-20T08:13:09.459Z,9.90
2019-02-20T08:14:07.564Z,9.90
2019-02-20T08:15:07.564Z,10.60
2019-02-20T08:16:07.573Z,10.10
2019-02-20T08:17:07.590Z,10.00
2019-02-20T08:18:07.589Z,9.70
2019-02-20T08:19:07.584Z,10.70
2019-02-20T08:20:07.600Z,10.10
2019-02-20T08:21:07.597Z,9.90
2019-02-20T08:22:07.603Z,9.90
2019-02-20T08:23:07.610Z,10.50
2019-02-20T08:24:07.622Z,9.50
2019-02-20T08:25:07.625Z,10.20
2019-02-20T08:26:07.626Z,10.20
2019-02-20T08:27:07.636Z,10.90
2019-02-20T08:28:07.641Z,10.10
2019-02-20T08:29:07.647Z,9.80
2019-02-20T08:30:07.655Z,9.30
2019-02-20T08:31:07.661Z,10.20
2019-02-20T08:32:07.671Z,10.30
2019-02-20T08:33:07.668Z,9.80
2019-02-20T08:34:07.668Z,9.80
2019-02-20T08:35:07.698Z,9.80
2019-02-20T08:36:07.690Z,10.00
2019-02-20T08:37:07.695Z,9.90
2019-02-20T08:38:07.702Z,9.80
2019-02-20T08:39:07.707Z,10.30
2019-02-20T08:40:07.716Z,10.40
2019-02-20T08:41:07.729Z,9.60
2019-02-20T08:42:07.728Z,10.90
2019-02-20T08:43:07.751Z,9.70
2019-02-20T08:44:07.737Z,9.40
2019-02-20T08:45:07.750Z,8.70
2019-02-20T08:46:07.750Z,10.00
2019-02-20T08:47:07.755Z,10.20
2019-02-20T08:48:07.761Z,9.70
2019-02-20T08:49:07.766Z,9.20
2019-02-20T08:50:07.775Z,9.20
2019-02-20T08:51:07.792Z,10.10
2019-02-20T08:52:07.782Z,9.70
2019-02-20T08:53:07.800Z,8.90
2019-02-20T08:54:07.791Z,8.80
2019-02-20T08:55:07.804Z,8.80
2019-02-20T08:56:07.822Z,9.50
2019-02-20T08:57:07.819Z,9.70
2019-02-20T08:58:07.830Z,9.80
2019-02-20T08:59:07.825Z,10.70
2019-02-20T09:00:07.833Z,9.30
2019-02-20T09:01:07.843Z,9.80
2019-02-20T09:02:07.848Z,9.40
2019-02-20T09:03:07.847Z,8.90
2019-02-20T09:04:07.859Z,9.00
2019-02-20T09:05:07.870Z,9.60
2019-02-20T09:06:07.877Z,10.40
2019-02-20T09:07:07.869Z,8.40
2019-02-20T09:08:07.882Z,9.80
2019-02-20T09:09:07.936Z,9.40
2019-02-20T09:10:07.909Z,9.40
2019-02-20T09:11:07.908Z,10.10
2019-02-20T09:12:07.906Z,8.10
2019-02-20T09:14:07.919Z,9.30
2019-02-20T09:15:07.934Z,8.90
2019-02-20T09:16:07.940Z,9.10
2019-02-20T09:17:07.950Z,9.40
2019-02-20T09:18:07.952Z,9.50
2019-02-20T09:19:07.963Z,9.00
2019-02-20T09:20:07.962Z,9.40
2019-02-20T09:21:07.977Z,8.80
2019-02-20T09:22:07.975Z,8.80
2019-02-20T09:23:07.983Z,8.40
2019-02-20T09:24:07.984Z,9.30
2019-02-20T09:25:08.005Z,9.20
2019-02-20T09:26:08.013Z,8.60
2019-02-20T09:27:08.019Z,9.20
2019-02-20T09:28:08.023Z,8.50
2019-02-20T09:29:08.024Z,8.00
2019-02-20T09:30:08.042Z,8.00
2019-02-20T09:31:08.057Z,8.90
2019-02-20T09:32:08.054Z,7.60
2019-02-20T09:33:08.072Z,7.60
2019-02-20T09:34:08.087Z,7.40
2019-02-20T09:35:08.094Z,7.50
2019-02-20T09:36:08.085Z,7.70
2019-02-20T09:37:08.102Z,8.00
2019-02-20T09:38:08.105Z,8.80
2019-02-20T09:39:08.109Z,8.30
2019-02-20T09:40:08.114Z,7.90
2019-02-20T09:41:08.130Z,7.10
2019-02-20T09:42:08.131Z,8.20
2019-02-20T09:43:08.141Z,9.10
2019-02-20T09:44:08.152Z,8.70
2019-02-20T09:45:08.154Z,8.30
2019-02-20T09:46:08.161Z,8.60
2019-02-20T09:47:08.172Z,8.40
2019-02-20T09:48:08.182Z,8.60
2019-02-20T09:49:08.190Z,7.80
2019-02-20T09:50:08.209Z,8.10
2019-02-20T09:51:08.226Z,7.40
2019-02-20T09:52:08.221Z,8.50
2019-02-20T09:53:08.228Z,8.20
2019-02-20T09:54:08.241Z,8.40
2019-02-20T09:55:08.250Z,8.70
2019-02-20T09:56:08.261Z,7.70
2019-02-20T09:57:08.271Z,7.30
2019-02-20T09:58:08.286Z,7.00
2019-02-20T09:59:08.283Z,7.40
2019-02-20T10:00:08.298Z,7.40
2019-02-20T10:01:08.313Z,7.70
2019-02-20T10:02:08.323Z,6.40
2019-02-20T10:03:08.330Z,5.70
2019-02-20T10:04:08.350Z,7.10
2019-02-20T10:05:08.350Z,7.00
2019-02-20T10:06:08.361Z,6.70
2019-02-20T10:07:08.371Z,7.50
2019-02-20T10:08:08.383Z,7.90
2019-02-20T10:09:08.391Z,7.40
2019-02-20T10:10:08.393Z,7.30
2019-02-20T10:11:08.415Z,7.40
2019-02-20T10:12:08.423Z,6.80
2019-02-20T10:13:10.928Z,7.00
2019-02-20T10:14:08.455Z,7.90
2019-02-20T10:15:08.451Z,6.70
2019-02-20T10:16:08.468Z,7.80
2019-02-20T10:17:08.476Z,7.60
2019-02-20T10:18:08.492Z,7.10
2019-02-20T10:19:08.499Z,7.60
2019-02-20T10:20:08.518Z,6.80
2019-02-20T10:21:08.520Z,6.40
2019-02-20T10:22:08.530Z,6.60
2019-02-20T10:23:08.539Z,5.70
2019-02-20T10:24:08.553Z,6.30
2019-02-20T10:25:08.568Z,6.30
2019-02-20T10:26:08.583Z,6.00
2019-02-20T10:27:08.586Z,6.10
2019-02-20T10:28:08.593Z,6.30
2019-02-20T10:29:08.609Z,6.80
2019-02-20T10:30:08.609Z,5.80
2019-02-20T10:31:08.625Z,5.30
2019-02-20T10:32:08.642Z,4.60
2019-02-20T10:33:08.648Z,5.40
2019-02-20T10:34:08.661Z,5.40
2019-02-20T10:35:08.663Z,5.70
2019-02-20T10:36:08.678Z,5.70
2019-02-20T10:37:08.698Z,6.10
2019-02-20T10:38:08.693Z,5.70
2019-02-20T10:39:08.708Z,5.50
2019-02-20T10:40:08.745Z,5.70
2019-02-20T10:41:08.742Z,6.30
2019-02-20T10:42:08.767Z,6.00
2019-02-20T10:43:08.774Z,5.10
2019-02-20T10:44:08.760Z,6.00
2019-02-20T10:45:08.763Z,5.90
2019-02-20T10:46:08.770Z,5.90
2019-02-20T10:47:08.783Z,5.50
2019-02-20T10:48:08.791Z,6.00
2019-02-20T10:49:08.793Z,5.20
2019-02-20T10:50:08.815Z,5.60
2019-02-20T10:51:08.820Z,4.50
2019-02-20T10:52:08.827Z,5.30
2019-02-20T10:53:08.836Z,5.80
2019-02-20T10:54:08.854Z,5.70
2019-02-20T10:55:08.947Z,6.30
2019-02-20T10:56:09.672Z,5.60
2019-02-20T10:57:08.891Z,5.70
2019-02-20T10:58:08.881Z,6.00
2019-02-20T10:59:08.876Z,5.80
2019-02-20T11:00:08.901Z,6.10
2019-02-20T11:01:08.906Z,5.40
2019-02-20T11:02:08.915Z,6.50
2019-02-20T11:03:08.922Z,6.00
2019-02-20T11:04:08.933Z,5.70
2019-02-20T11:05:08.949Z,6.50
2019-02-20T11:06:08.953Z,5.60
2019-02-20T11:07:08.962Z,5.50
2019-02-20T11:08:08.965Z,5.50
2019-02-20T11:09:08.981Z,5.80
2019-02-20T11:10:08.981Z,6.30
2019-02-20T11:11:08.989Z,6.10
2019-02-20T11:12:09.003Z,5.90
2019-02-20T11:13:09.011Z,5.70
2019-02-20T11:14:09.021Z,6.60
2019-02-20T11:15:09.039Z,6.20
2019-02-20T11:16:09.028Z,6.40
2019-02-20T11:17:09.040Z,4.90
2019-02-20T11:18:09.052Z,5.40
2019-02-20T11:19:09.058Z,5.80
2019-02-20T11:20:09.082Z,5.80
2019-02-20T11:21:09.074Z,6.00
2019-02-20T11:22:09.091Z,5.50
2019-02-20T11:23:09.088Z,5.30
2019-02-20T11:24:09.101Z,6.50
2019-02-20T11:25:09.123Z,5.70
2019-02-20T11:26:17.539Z,6.50
2019-02-20T11:27:09.124Z,6.40
2019-02-20T11:28:09.138Z,6.10
2019-02-20T11:29:09.151Z,6.10
2019-02-20T11:30:09.151Z,5.50
2019-02-20T11:31:09.173Z,5.20
2019-02-20T11:32:09.179Z,5.50
2019-02-20T11:33:09.189Z,6.10
2019-02-20T11:34:09.195Z,6.60
2019-02-20T11:35:09.196Z,6.70
2019-02-20T11:36:09.224Z,6.20
2019-02-20T11:37:09.228Z,6.60
2019-02-20T11:38:09.221Z,6.30
2019-02-20T11:39:09.227Z,6.20
2019-02-20T11:40:09.270Z,6.40
2019-02-20T11:41:09.261Z,7.00
2019-02-20T11:42:09.255Z,6.40
2019-02-20T11:43:09.278Z,6.00
2019-02-20T11:44:09.282Z,6.90
2019-02-20T11:45:09.296Z,7.40
2019-02-20T11:46:09.311Z,7.00
2019-02-20T11:47:09.313Z,7.20
2019-02-20T11:48:09.320Z,6.70
2019-02-20T11:49:09.327Z,6.90
2019-02-20T11:50:09.346Z,7.90
2019-02-20T11:51:09.354Z,6.90
2019-02-20T11:52:09.358Z,7.10
2019-02-20T11:53:09.373Z,7.00
2019-02-20T11:54:09.379Z,7.00
2019-02-20T11:55:09.388Z,7.60
2019-02-20T11:56:09.391Z,6.70
2019-02-20T11:57:09.400Z,7.90
2019-02-20T11:58:09.419Z,8.30
2019-02-20T11:59:09.427Z,8.80
2019-02-20T12:00:09.435Z,7.90
2019-02-20T12:01:09.447Z,8.60
2019-02-20T12:02:09.454Z,8.70
2019-02-20T12:03:09.461Z,8.40
2019-02-20T12:04:09.474Z,9.00
2019-02-20T12:05:09.478Z,8.90
2019-02-20T12:06:09.497Z,8.70
2019-02-20T12:07:09.496Z,8.80
2019-02-20T12:08:09.509Z,9.30
2019-02-20T12:09:09.514Z,9.40
2019-02-20T12:10:09.523Z,10.20
2019-02-20T12:11:09.523Z,8.90
2019-02-20T12:12:09.568Z,9.10
2019-02-20T12:13:09.552Z,9.00
2019-02-20T12:14:09.556Z,10.10
2019-02-20T12:15:09.581Z,8.60
2019-02-20T12:16:09.576Z,9.30
2019-02-20T12:17:09.585Z,9.50
2019-02-20T12:18:17.201Z,9.20
2019-02-20T12:19:09.615Z,9.50
2019-02-20T12:20:09.627Z,9.30
2019-02-20T12:21:09.627Z,9.30
2019-02-20T12:22:09.642Z,9.80
2019-02-20T12:23:09.636Z,10.20
2019-02-20T12:24:09.644Z,10.40
2019-02-20T12:25:09.665Z,9.90
2019-02-20T12:26:09.672Z,9.60
2019-02-20T12:27:09.675Z,9.30
2019-02-20T12:28:09.686Z,10.30
2019-02-20T12:29:11.239Z,9.70
2019-02-20T12:30:09.717Z,9.10
2019-02-20T12:31:09.716Z,9.10
2019-02-20T12:32:09.736Z,9.00
2019-02-20T12:33:09.732Z,9.40
2019-02-20T12:34:09.748Z,9.80
2019-02-20T12:35:09.755Z,9.30
2019-02-20T12:36:09.775Z,9.50
2019-02-20T12:37:09.779Z,10.70
2019-02-20T12:38:09.787Z,9.60
2019-02-20T12:39:09.798Z,9.90
2019-02-20T12:40:09.808Z,10.00
2019-02-20T12:41:10.928Z,10.20
2019-02-20T12:42:09.851Z,9.10
2019-02-20T12:43:09.854Z,8.80
2019-02-20T12:44:09.854Z,9.50
2019-02-20T12:45:09.870Z,9.60
2019-02-20T12:46:09.925Z,9.40
2019-02-20T12:47:09.896Z,9.00
2019-02-20T12:48:09.912Z,9.30
2019-02-20T12:49:09.911Z,9.20
2019-02-20T12:50:09.928Z,9.10
2019-02-20T12:52:09.946Z,8.50
2019-02-20T12:53:09.957Z,9.30
2019-02-20T12:54:09.972Z,8.40
2019-02-20T12:55:09.976Z,9.90
2019-02-20T12:56:10.376Z,10.10
2019-02-20T12:57:10.416Z,9.00
2019-02-20T12:58:10.013Z,8.20
2019-02-20T12:59:10.021Z,9.10
2019-02-20T13:00:10.032Z,8.70
2019-02-20T13:01:10.052Z,8.00
2019-02-20T13:02:10.058Z,8.90
2019-02-20T13:03:10.063Z,7.90
2019-02-20T13:04:10.071Z,8.00
2019-02-20T13:05:10.078Z,7.40
2019-02-20T13:06:10.082Z,8.00
2019-02-20T13:07:10.100Z,8.70
2019-02-20T13:08:10.123Z,8.00
2019-02-20T13:09:10.118Z,8.50
2019-02-20T13:10:10.132Z,9.60
2019-02-20T13:11:10.138Z,8.40
2019-02-20T13:12:10.151Z,8.50
2019-02-20T13:13:10.161Z,9.20
2019-02-20T13:14:10.177Z,9.20
2019-02-20T13:15:10.184Z,8.70